Time;durP1;ratioP1;P1;durP2;ratioP2;P2;SDS_P1;SDS_P2;PMS_P1;PMS_P2;Temp;Humidity;BMP_temperature;BMP_pressure;BME280_temperature;BME280_humidity;BME280_pressure;Samples;Min_cycle;Max_cycle;Signal;HPM_P1;HPM_P2
2021/06/23 00:00:34;;;;;;;6.38;2.90;;;24.90;71.30;;;;;;5048735;28;20116;-63
2021/06/23 00:03:00;;;;;;;4.30;2.78;;;24.80;71.00;;;;;;5055388;28;20539;-63
2021/06/23 00:05:27;;;;;;;5.25;3.08;;;24.80;71.20;;;;;;5051919;28;20033;-63
2021/06/23 00:07:53;;;;;;;5.65;2.92;;;24.80;71.60;;;;;;5044756;28;20465;-63
2021/06/23 00:10:18;;;;;;;4.95;2.75;;;24.80;71.80;;;;;;5046773;28;20103;-63
2021/06/23 00:12:45;;;;;;;4.07;2.72;;;24.80;71.70;;;;;;5043183;28;20368;-63
2021/06/23 00:15:16;;;;;;;4.70;2.67;;;24.80;71.30;;;;;;5050649;28;20064;-63
2021/06/23 00:17:42;;;;;;;7.60;2.97;;;24.80;70.90;;;;;;5050382;28;20056;-64
2021/06/23 00:20:08;;;;;;;5.05;2.78;;;24.80;71.00;;;;;;5046820;28;20549;-64
2021/06/23 00:22:34;;;;;;;7.18;3.08;;;24.70;70.90;;;;;;5044345;28;20037;-63
2021/06/23 00:25:00;;;;;;;4.40;3.08;;;24.70;70.80;;;;;;5046232;28;20033;-63
2021/06/23 00:27:25;;;;;;;8.13;2.92;;;24.80;71.00;;;;;;5050308;28;20033;-63
2021/06/23 00:29:51;;;;;;;5.43;2.88;;;24.80;70.80;;;;;;5045349;28;20026;-63
2021/06/23 00:32:20;;;;;;;4.93;2.80;;;24.80;70.30;;;;;;5047213;28;20122;-64
2021/06/23 00:34:46;;;;;;;4.97;2.80;;;24.70;70.20;;;;;;5053398;28;20036;-63
2021/06/23 00:37:12;;;;;;;6.38;3.00;;;24.80;70.30;;;;;;5052135;28;20036;-63
2021/06/23 00:39:38;;;;;;;6.15;2.80;;;24.70;70.40;;;;;;5049149;28;20116;-63
2021/06/23 00:42:07;;;;;;;3.60;2.45;;;24.70;70.50;;;;;;5049009;28;20033;-63
2021/06/23 00:44:32;;;;;;;5.32;3.10;;;24.80;70.60;;;;;;5050687;28;20109;-63
2021/06/23 00:46:58;;;;;;;8.05;3.30;;;24.70;70.80;;;;;;5047130;28;20108;-63
2021/06/23 00:49:30;;;;;;;4.32;2.88;;;24.70;71.30;;;;;;5047397;28;20053;-63
2021/06/23 00:51:57;;;;;;;4.70;2.90;;;24.70;71.60;;;;;;5051760;28;20495;-63
2021/06/23 00:54:23;;;;;;;5.95;3.08;;;24.70;72.20;;;;;;5056565;28;20028;-63
2021/06/23 00:56:49;;;;;;;4.85;2.70;;;24.70;72.40;;;;;;5048674;28;20071;-63
2021/06/23 00:59:15;;;;;;;6.00;3.50;;;24.70;72.30;;;;;;5046833;28;20096;-63
2021/06/23 01:01:43;;;;;;;10.35;2.97;;;24.70;73.40;;;;;;5045328;28;20945;-63
2021/06/23 01:04:09;;;;;;;6.82;3.20;;;24.70;72.70;;;;;;5047913;28;20040;-63
2021/06/23 01:06:35;;;;;;;8.23;3.28;;;24.60;72.40;;;;;;5046277;28;20375;-63
2021/06/23 01:09:02;;;;;;;5.60;3.22;;;24.70;72.60;;;;;;5047381;28;20051;-63
2021/06/23 01:11:29;;;;;;;8.73;3.33;;;24.60;72.60;;;;;;5044267;28;20563;-63
2021/06/23 01:14:04;;;;;;;7.20;2.97;;;24.60;72.60;;;;;;5048557;28;20056;-63
2021/06/23 01:16:33;;;;;;;4.60;3.08;;;24.60;72.70;;;;;;5044941;28;20477;-63
2021/06/23 01:19:00;;;;;;;5.03;3.00;;;24.60;72.90;;;;;;5045491;28;20539;-63
2021/06/23 01:21:27;;;;;;;6.68;3.20;;;24.50;72.40;;;;;;5046225;28;20550;-63
2021/06/23 01:23:53;;;;;;;6.20;3.03;;;24.50;73.10;;;;;;5045064;28;20025;-63
2021/06/23 01:26:19;;;;;;;4.90;3.33;;;24.50;72.70;;;;;;5043044;28;20116;-63
2021/06/23 01:28:45;;;;;;;7.90;3.28;;;24.50;72.90;;;;;;5049380;28;20462;-63
2021/06/23 01:31:13;;;;;;;6.80;3.30;;;24.50;72.60;;;;;;5056326;28;20025;-63
2021/06/23 01:33:39;;;;;;;5.80;3.30;;;24.50;72.50;;;;;;5055928;28;20032;-64
2021/06/23 01:36:06;;;;;;;4.57;2.85;;;24.50;72.60;;;;;;5051741;28;20489;-63
2021/06/23 01:38:31;;;;;;;7.63;3.63;;;24.60;72.80;;;;;;5050163;28;20032;-63
2021/06/23 01:40:57;;;;;;;5.25;3.25;;;24.50;72.60;;;;;;5045517;28;21444;-63
2021/06/23 01:43:23;;;;;;;5.53;3.33;;;24.50;72.30;;;;;;5040798;28;20029;-63
2021/06/23 01:45:50;;;;;;;5.78;3.28;;;24.50;72.00;;;;;;5051978;28;20041;-63
2021/06/23 01:48:18;;;;;;;5.43;3.00;;;24.50;71.50;;;;;;5049425;28;20064;-63
2021/06/23 01:51:10;;;;;;;5.60;3.10;;;24.50;71.30;;;;;;5046130;28;20086;-63
2021/06/23 01:53:36;;;;;;;5.75;3.30;;;24.50;70.80;;;;;;5041800;28;20044;-63
2021/06/23 01:56:04;;;;;;;6.85;3.53;;;24.50;71.00;;;;;;5052889;28;20033;-63
2021/06/23 01:58:30;;;;;;;8.68;3.35;;;24.50;70.80;;;;;;5051631;28;20037;-63
2021/06/23 02:01:05;;;;;;;6.05;3.30;;;24.50;70.10;;;;;;5043967;28;20033;-63
2021/06/23 02:03:34;;;;;;;5.03;3.47;;;24.50;70.00;;;;;;5046669;28;20026;-63
2021/06/23 02:06:05;;;;;;;5.35;3.20;;;24.50;70.10;;;;;;5046427;28;20024;-63
2021/06/23 02:08:45;;;;;;;8.38;3.47;;;24.50;69.80;;;;;;5045062;28;20574;-63
2021/06/23 02:11:33;;;;;;;4.88;2.97;;;24.50;69.60;;;;;;5043904;28;20043;-63
2021/06/23 02:14:29;;;;;;;5.47;2.92;;;24.50;69.70;;;;;;5041642;28;20087;-63
2021/06/23 02:16:56;;;;;;;4.55;2.95;;;24.50;69.70;;;;;;5046065;28;20053;-63
2021/06/23 02:19:22;;;;;;;7.22;3.30;;;24.50;69.70;;;;;;5045501;28;20692;-63
2021/06/23 02:21:48;;;;;;;4.97;3.00;;;24.50;69.40;;;;;;5044590;28;20377;-63
2021/06/23 02:24:16;;;;;;;4.55;3.15;;;24.50;69.40;;;;;;5045397;28;20033;-63
2021/06/23 02:26:42;;;;;;;3.67;3.13;;;24.60;69.30;;;;;;5047571;28;20037;-63
2021/06/23 02:29:08;;;;;;;4.68;3.58;;;24.60;69.20;;;;;;5045250;28;20159;-63
2021/06/23 02:31:39;;;;;;;6.20;3.10;;;24.60;69.20;;;;;;5046798;28;20021;-63
2021/06/23 02:34:08;;;;;;;4.20;3.05;;;24.60;69.10;;;;;;5048589;28;20032;-63
2021/06/23 02:36:35;;;;;;;4.40;2.90;;;24.60;69.10;;;;;;5040886;28;20120;-63
2021/06/23 02:39:01;;;;;;;5.03;3.10;;;24.60;68.90;;;;;;5042599;28;20029;-63
2021/06/23 02:41:27;;;;;;;6.72;3.10;;;24.60;69.00;;;;;;5044098;28;20055;-63
2021/06/23 02:43:53;;;;;;;6.50;3.35;;;24.60;69.10;;;;;;5042945;28;20029;-63
2021/06/23 02:46:19;;;;;;;4.60;3.13;;;24.60;69.10;;;;;;5044613;28;20125;-63
2021/06/23 02:48:45;;;;;;;4.50;2.78;;;24.70;69.10;;;;;;5045789;28;20462;-63
2021/06/23 02:51:20;;;;;;;6.45;2.97;;;24.70;69.30;;;;;;5045126;28;20017;-63
2021/06/23 02:53:51;;;;;;;4.68;3.05;;;24.70;69.40;;;;;;5044789;28;20519;-63
2021/06/23 02:56:17;;;;;;;5.18;3.38;;;24.70;69.60;;;;;;5045261;28;20078;-63
2021/06/23 02:58:44;;;;;;;5.60;3.10;;;24.80;69.70;;;;;;5050966;28;20465;-63
2021/06/23 03:01:11;;;;;;;3.22;2.83;;;24.80;69.80;;;;;;5056032;28;20021;-63
2021/06/23 03:03:38;;;;;;;6.32;3.58;;;24.80;69.90;;;;;;5045752;28;20025;-63
2021/06/23 03:06:04;;;;;;;7.57;3.55;;;24.80;69.90;;;;;;5045609;28;20032;-63
2021/06/23 03:08:31;;;;;;;4.38;3.22;;;24.80;69.90;;;;;;5049591;28;20497;-63
2021/06/23 03:10:56;;;;;;;6.35;3.38;;;24.90;69.90;;;;;;5048141;28;20346;-63
2021/06/23 03:13:22;;;;;;;3.95;3.28;;;24.90;70.70;;;;;;5050709;28;20025;-63
2021/06/23 03:15:48;;;;;;;4.10;3.20;;;25.00;70.00;;;;;;5049705;28;20104;-63
2021/06/23 03:18:14;;;;;;;4.82;3.20;;;25.00;70.10;;;;;;5052508;28;20029;-63
2021/06/23 03:20:39;;;;;;;8.20;3.50;;;25.10;70.30;;;;;;5052434;28;20116;-63
2021/06/23 03:23:05;;;;;;;3.97;3.15;;;25.10;70.30;;;;;;5047207;28;20044;-64
2021/06/23 03:25:31;;;;;;;4.72;3.30;;;25.20;69.80;;;;;;5046207;28;20113;-64
2021/06/23 03:27:59;;;;;;;8.18;3.47;;;25.20;69.20;;;;;;5048402;28;20095;-63
2021/06/23 03:30:27;;;;;;;3.63;3.15;;;25.30;68.80;;;;;;5049009;28;20064;-63
2021/06/23 03:32:53;;;;;;;7.65;3.50;;;25.30;68.90;;;;;;5046819;28;20087;-63
2021/06/23 03:35:20;;;;;;;6.70;3.63;;;25.40;68.80;;;;;;5052841;28;20562;-63
2021/06/23 03:37:51;;;;;;;28.27;20.35;;;25.50;68.80;;;;;;5051456;28;20024;-63
2021/06/23 03:40:16;;;;;;;;;;;25.50;68.60;;;;;;5044756;28;20029;-63
2021/06/23 03:42:43;;;;;;;23.67;18.23;;;25.50;68.60;;;;;;5053072;28;19908;-63
2021/06/23 03:45:09;;;;;;;71.53;47.67;;;25.60;69.00;;;;;;5057587;28;20025;-64
2021/06/23 03:47:35;;;;;;;57.42;40.85;;;25.60;69.00;;;;;;5047075;28;20025;-64
2021/06/23 03:50:01;;;;;;;40.53;30.42;;;25.60;68.80;;;;;;5044325;28;20375;-63
2021/06/23 03:52:26;;;;;;;35.70;25.35;;;25.70;68.90;;;;;;5053651;28;20017;-64
2021/06/23 03:54:52;;;;;;;15.23;11.10;;;25.70;68.90;;;;;;5049639;28;20036;-64
2021/06/23 03:57:18;;;;;;;9.02;6.45;;;25.70;68.60;;;;;;5049801;28;20037;-64
2021/06/23 03:59:44;;;;;;;7.53;4.78;;;25.70;68.60;;;;;;5055124;28;20043;-64
2021/06/23 04:02:09;;;;;;;6.32;4.00;;;25.60;68.40;;;;;;5053267;28;20103;-64
2021/06/23 04:04:35;;;;;;;5.00;3.85;;;25.60;68.50;;;;;;5056414;28;20485;-64
2021/06/23 04:07:01;;;;;;;6.55;3.85;;;25.60;68.40;;;;;;5044093;28;20033;-64
2021/06/23 04:09:27;;;;;;;5.57;3.55;;;25.60;69.00;;;;;;5045470;28;20145;-64
2021/06/23 04:11:52;;;;;;;6.43;3.60;;;25.60;68.70;;;;;;5045856;28;20041;-64
2021/06/23 04:14:18;;;;;;;5.57;3.47;;;25.60;68.50;;;;;;5042746;28;20077;-64
2021/06/23 04:16:44;;;;;;;4.75;3.53;;;25.60;68.30;;;;;;5045439;28;20021;-64
2021/06/23 04:19:09;;;;;;;12.93;3.65;;;25.60;68.10;;;;;;5054362;28;20025;-64
2021/06/23 04:21:35;;;;;;;5.53;3.45;;;25.60;68.10;;;;;;5048224;28;20063;-64
2021/06/23 04:24:01;;;;;;;6.10;3.45;;;25.70;68.10;;;;;;5046720;28;20032;-64
2021/06/23 04:26:26;;;;;;;7.88;4.07;;;25.70;67.70;;;;;;5048551;28;20051;-64
2021/06/23 04:28:52;;;;;;;6.50;3.90;;;25.70;67.60;;;;;;5055311;28;20112;-64
2021/06/23 04:31:18;;;;;;;7.20;3.65;;;25.80;68.10;;;;;;5045462;28;20029;-64
2021/06/23 04:33:45;;;;;;;7.55;4.20;;;25.80;67.90;;;;;;5044300;28;20031;-64
2021/06/23 04:36:11;;;;;;;6.72;3.42;;;25.80;68.40;;;;;;5048120;28;20096;-64
2021/06/23 04:38:36;;;;;;;7.45;3.80;;;25.80;67.60;;;;;;5049173;28;20458;-64
2021/06/23 04:41:03;;;;;;;7.68;3.70;;;25.80;67.50;;;;;;5044185;28;20493;-64
2021/06/23 04:43:28;;;;;;;5.93;3.47;;;25.80;67.30;;;;;;5044982;28;20059;-64
2021/06/23 04:45:54;;;;;;;4.88;3.75;;;25.70;67.20;;;;;;5045103;28;20024;-64
2021/06/23 04:48:20;;;;;;;4.10;3.55;;;25.70;67.50;;;;;;5050784;28;20126;-64
2021/06/23 04:50:45;;;;;;;5.88;3.63;;;25.70;67.60;;;;;;5044450;28;20396;-64
2021/06/23 04:53:11;;;;;;;5.25;3.65;;;25.70;67.70;;;;;;5045131;28;20029;-64
2021/06/23 04:55:37;;;;;;;4.75;3.67;;;25.80;67.70;;;;;;5040366;28;20033;-64
2021/06/23 04:58:02;;;;;;;4.68;3.60;;;26.00;67.90;;;;;;5044209;28;20049;-64
2021/06/23 05:00:28;;;;;;;5.55;4.32;;;26.20;67.60;;;;;;5050661;28;20553;-64
2021/06/23 05:02:54;;;;;;;4.50;3.88;;;26.30;67.20;;;;;;5050218;28;20028;-64
2021/06/23 05:05:20;;;;;;;6.50;3.80;;;26.50;66.70;;;;;;5050767;28;20055;-62
2021/06/23 05:07:46;;;;;;;4.78;3.88;;;26.50;66.60;;;;;;5049266;28;20017;-62
2021/06/23 05:10:11;;;;;;;5.50;3.60;;;26.70;66.60;;;;;;5045121;28;20112;-62
2021/06/23 05:12:37;;;;;;;6.45;4.18;;;26.90;66.50;;;;;;5043481;28;20405;-61
2021/06/23 05:15:03;;;;;;;6.68;4.35;;;27.30;66.70;;;;;;5051780;28;20025;-64
2021/06/23 05:17:29;;;;;;;5.65;4.00;;;27.80;65.40;;;;;;5053128;28;20029;-64
2021/06/23 05:19:55;;;;;;;8.57;4.20;;;28.20;64.20;;;;;;5050592;28;20031;-64
2021/06/23 05:22:21;;;;;;;8.45;4.32;;;28.50;63.50;;;;;;5044829;28;20159;-64
2021/06/23 05:24:46;;;;;;;8.18;4.10;;;28.50;63.00;;;;;;5043945;28;20108;-64
2021/06/23 05:27:12;;;;;;;6.13;4.00;;;28.40;63.00;;;;;;5043114;28;20504;-64
2021/06/23 05:29:38;;;;;;;5.82;4.32;;;28.40;63.00;;;;;;5039167;28;20051;-64
2021/06/23 05:32:05;;;;;;;7.80;4.03;;;28.30;63.10;;;;;;5043278;28;20025;-64
2021/06/23 05:34:30;;;;;;;7.68;5.28;;;28.30;62.80;;;;;;5044494;28;20021;-64
2021/06/23 05:36:57;;;;;;;6.05;4.15;;;28.30;63.20;;;;;;5044309;28;20044;-64
2021/06/23 05:39:23;;;;;;;7.63;4.68;;;28.30;63.00;;;;;;5040683;28;20404;-64
2021/06/23 05:41:48;;;;;;;8.68;4.57;;;28.30;63.40;;;;;;5050954;28;20025;-64
2021/06/23 05:44:14;;;;;;;6.70;4.70;;;28.40;62.90;;;;;;5044770;28;20758;-64
2021/06/23 05:46:40;;;;;;;4.85;4.32;;;28.40;62.90;;;;;;5038814;28;20059;-64
2021/06/23 05:49:05;;;;;;;6.93;4.65;;;28.40;63.10;;;;;;5044282;28;20175;-64
2021/06/23 05:51:31;;;;;;;5.47;4.32;;;28.50;63.40;;;;;;5036447;28;20521;-64
2021/06/23 05:53:57;;;;;;;6.57;4.30;;;28.50;63.20;;;;;;5035272;28;20076;-64
2021/06/23 05:56:22;;;;;;;12.77;5.78;;;28.40;63.10;;;;;;5025745;28;20040;-64
2021/06/23 05:58:48;;;;;;;5.13;4.10;;;28.30;63.30;;;;;;5025935;28;20060;-64
2021/06/23 06:01:14;;;;;;;5.47;3.70;;;28.30;63.60;;;;;;5031326;28;20086;-65
2021/06/23 06:03:39;;;;;;;4.25;3.40;;;28.20;63.50;;;;;;5028799;28;20029;-65
2021/06/23 06:06:05;;;;;;;6.18;4.10;;;28.20;63.40;;;;;;5030136;28;20140;-65
2021/06/23 06:08:31;;;;;;;5.72;3.63;;;28.20;63.50;;;;;;5032288;28;20025;-65
2021/06/23 06:10:57;;;;;;;7.78;3.92;;;28.20;63.10;;;;;;5033321;28;20776;-65
2021/06/23 06:13:23;;;;;;;5.68;3.65;;;28.20;62.80;;;;;;5032540;28;20108;-64
2021/06/23 06:15:49;;;;;;;5.45;3.92;;;28.10;63.00;;;;;;5034382;28;20030;-65
2021/06/23 06:18:15;;;;;;;5.10;3.60;;;28.10;63.00;;;;;;5034001;28;20464;-64
2021/06/23 06:20:41;;;;;;;6.47;3.90;;;28.00;63.40;;;;;;5031434;28;20037;-64
2021/06/23 06:23:07;;;;;;;7.40;4.03;;;27.90;63.50;;;;;;5032808;28;20512;-64
2021/06/23 06:25:33;;;;;;;6.75;3.85;;;27.90;63.60;;;;;;5051277;28;20060;-64
2021/06/23 06:27:59;;;;;;;7.00;4.03;;;27.90;63.70;;;;;;5033126;28;21297;-64
2021/06/23 06:30:26;;;;;;;5.60;3.78;;;27.90;64.20;;;;;;5029588;28;20044;-63
2021/06/23 06:32:52;;;;;;;6.35;3.90;;;27.90;64.60;;;;;;5030053;28;20040;-64
2021/06/23 06:35:18;;;;;;;6.68;4.35;;;28.00;64.30;;;;;;5024401;28;20028;-64
2021/06/23 06:37:43;;;;;;;6.70;4.03;;;28.10;64.40;;;;;;5033507;28;20023;-64
2021/06/23 06:40:10;;;;;;;5.85;4.38;;;28.20;64.30;;;;;;5024061;28;20029;-63
2021/06/23 06:42:36;;;;;;;6.32;4.55;;;28.30;64.40;;;;;;5024497;28;20346;-64
2021/06/23 06:45:04;;;;;;;5.55;4.20;;;28.30;64.60;;;;;;5022831;28;20497;-64
2021/06/23 06:47:30;;;;;;;6.80;4.22;;;28.30;64.10;;;;;;5021871;28;20829;-64
2021/06/23 06:49:56;;;;;;;7.68;4.32;;;28.30;64.00;;;;;;5024404;28;20393;-64
2021/06/23 06:52:22;;;;;;;4.70;3.80;;;28.30;64.20;;;;;;5026814;28;20033;-63
2021/06/23 06:54:48;;;;;;;8.00;4.63;;;28.20;64.10;;;;;;5023228;28;20112;-64
2021/06/23 06:57:13;;;;;;;5.35;4.20;;;28.20;64.40;;;;;;5026177;28;20087;-64
2021/06/23 06:59:39;;;;;;;6.25;4.13;;;28.20;64.70;;;;;;5026353;28;20036;-64
2021/06/23 07:02:05;;;;;;;5.53;4.30;;;28.10;64.80;;;;;;5027893;28;20037;-65
2021/06/23 07:04:30;;;;;;;5.30;3.88;;;28.00;65.10;;;;;;5026724;28;20389;-66
2021/06/23 07:06:56;;;;;;;7.93;4.43;;;28.00;65.40;;;;;;5022332;28;20060;-65
2021/06/23 07:09:22;;;;;;;5.80;4.13;;;27.90;65.60;;;;;;5024286;28;21096;-65
2021/06/23 07:11:49;;;;;;;8.48;4.30;;;27.90;66.30;;;;;;5023119;28;20040;-64
2021/06/23 07:14:15;;;;;;;5.95;4.50;;;27.80;65.80;;;;;;5029521;28;20036;-64
2021/06/23 07:16:42;;;;;;;6.82;4.10;;;27.70;65.70;;;;;;5027543;28;20025;-65
2021/06/23 07:19:07;;;;;;;7.40;4.53;;;27.80;66.00;;;;;;5027983;28;20039;-65
2021/06/23 07:21:33;;;;;;;6.97;4.00;;;27.80;65.80;;;;;;5026487;28;20651;-65
2021/06/23 07:23:59;;;;;;;7.40;4.40;;;27.70;65.50;;;;;;5026331;28;20103;-66
2021/06/23 07:26:27;;;;;;;5.03;3.97;;;27.70;65.40;;;;;;5031693;28;20045;-65
2021/06/23 07:28:54;;;;;;;6.07;4.00;;;27.70;65.30;;;;;;5021432;28;20412;-65
2021/06/23 07:36:55;;;;;;;6.15;4.10;;;27.60;66.10;;;;;;5026532;28;20037;-64
2021/06/23 07:39:21;;;;;;;8.27;4.55;;;27.60;66.00;;;;;;5025835;28;20741;-64
2021/06/23 07:41:51;;;;;;;6.45;4.03;;;27.60;65.80;;;;;;5025806;28;20033;-64
2021/06/23 07:44:21;;;;;;;5.65;3.80;;;27.60;65.80;;;;;;5022412;28;20036;-64
2021/06/23 07:46:52;;;;;;;7.05;4.38;;;27.70;65.70;;;;;;5024979;28;20045;-64
2021/06/23 07:49:18;;;;;;;6.60;4.32;;;27.70;65.90;;;;;;5025701;28;20035;-64
2021/06/23 07:52:03;;;;;;;5.03;4.15;;;27.80;66.10;;;;;;5028799;28;20072;-64
2021/06/23 08:10:14;;;;;;;6.47;4.30;;;28.10;65.70;;;;;;5031078;28;20503;-64
2021/06/23 08:13:22;;;;;;;6.13;4.22;;;28.10;65.70;;;;;;5029589;28;20206;-65
2021/06/23 08:15:31;;;;;;;5.82;4.43;;;28.10;65.70;;;;;;5039996;28;20128;-64
2021/06/23 08:17:57;;;;;;;5.65;4.13;;;28.10;65.60;;;;;;5024779;28;20577;-63
2021/06/23 08:20:23;;;;;;;5.88;4.28;;;28.20;65.70;;;;;;5028105;28;21497;-64
2021/06/23 08:22:51;;;;;;;7.43;4.40;;;28.20;65.60;;;;;;5028777;28;20045;-63
2021/06/23 08:25:17;;;;;;;4.40;4.00;;;28.30;65.50;;;;;;5025219;28;20025;-63
2021/06/23 08:27:43;;;;;;;9.13;4.90;;;28.30;65.70;;;;;;5031711;28;20103;-63
2021/06/23 08:30:10;;;;;;;7.25;4.38;;;28.30;65.60;;;;;;5026343;28;20038;-63
2021/06/23 08:32:37;;;;;;;7.47;4.00;;;28.40;65.70;;;;;;5020542;28;20570;-63
2021/06/23 08:35:04;;;;;;;7.03;4.60;;;28.40;65.40;;;;;;5025472;28;20115;-63
2021/06/23 08:37:30;;;;;;;5.82;4.47;;;28.40;65.60;;;;;;5026615;28;20032;-63
2021/06/23 08:39:56;;;;;;;6.90;4.32;;;28.30;66.00;;;;;;5029643;28;21116;-63
2021/06/23 08:42:22;;;;;;;12.32;4.80;;;28.30;66.70;;;;;;5026373;28;20182;-63
2021/06/23 08:44:48;;;;;;;11.00;4.50;;;28.30;66.90;;;;;;5028903;28;20054;-64
2021/06/23 08:47:14;;;;;;;5.93;5.00;;;28.30;66.30;;;;;;5025197;28;20376;-63
2021/06/23 08:49:43;;;;;;;8.30;5.60;;;28.30;66.40;;;;;;5025679;28;20040;-64
2021/06/23 08:52:09;;;;;;;5.97;5.38;;;28.40;66.80;;;;;;5024216;28;20174;-64
2021/06/23 08:54:36;;;;;;;5.85;4.80;;;28.40;66.70;;;;;;5023115;28;20029;-65
2021/06/23 08:57:02;;;;;;;10.18;5.38;;;28.50;66.80;;;;;;5026662;28;20120;-65
2021/06/23 08:59:28;;;;;;;11.82;4.93;;;28.50;67.10;;;;;;5022434;28;20724;-65
2021/06/23 09:01:54;;;;;;;6.95;5.07;;;28.50;67.00;;;;;;5019153;28;20040;-65
2021/06/23 09:04:24;;;;;;;5.55;4.40;;;28.50;66.50;;;;;;5026994;28;20052;-64
2021/06/23 09:06:51;;;;;;;8.95;5.32;;;28.50;66.40;;;;;;5026615;28;20052;-65
2021/06/23 09:09:35;;;;;;;7.35;4.65;;;28.50;66.70;;;;;;5027121;28;20087;-65
2021/06/23 09:12:04;;;;;;;9.27;5.18;;;28.50;66.50;;;;;;5029750;28;20071;-64
2021/06/23 09:14:33;;;;;;;5.70;4.78;;;28.50;66.50;;;;;;5029141;28;20037;-64
2021/06/23 09:17:07;;;;;;;7.38;4.60;;;28.50;66.70;;;;;;5027240;28;20063;-65
2021/06/23 09:20:00;;;;;;;8.77;4.25;;;28.50;66.40;;;;;;5026910;28;20120;-64
2021/06/23 09:22:35;;;;;;;7.30;4.78;;;28.50;66.50;;;;;;5026746;28;20045;-65
2021/06/23 09:25:05;;;;;;;10.60;4.70;;;28.50;66.50;;;;;;5022481;28;20037;-64
2021/06/23 09:27:31;;;;;;;7.35;4.40;;;28.40;66.70;;;;;;5022877;28;20037;-64
2021/06/23 09:30:35;;;;;;;7.93;5.25;;;28.40;66.90;;;;;;5022695;28;20043;-65
2021/06/23 09:33:18;;;;;;;7.45;5.15;;;28.40;67.40;;;;;;5022492;28;20053;-65
2021/06/23 09:35:57;;;;;;;5.97;4.45;;;28.40;67.30;;;;;;5022931;28;20200;-64
2021/06/23 09:38:35;;;;;;;5.25;4.45;;;28.40;67.50;;;;;;5028387;28;20021;-65
2021/06/23 09:41:03;;;;;;;7.47;4.70;;;28.50;67.80;;;;;;5027624;28;20037;-64
2021/06/23 09:43:42;;;;;;;7.72;4.85;;;28.50;67.90;;;;;;5030002;28;20832;-65
2021/06/23 09:46:23;;;;;;;8.60;4.60;;;28.60;68.00;;;;;;5024529;28;20083;-65
2021/06/23 09:48:51;;;;;;;6.90;4.80;;;28.70;67.90;;;;;;5025467;28;20453;-65
2021/06/23 09:51:20;;;;;;;9.18;5.38;;;28.70;68.00;;;;;;5023662;28;20540;-64
2021/06/23 09:53:47;;;;;;;7.85;5.10;;;28.80;67.70;;;;;;5025823;28;20041;-65
2021/06/23 09:56:37;;;;;;;6.57;4.80;;;28.80;67.90;;;;;;5029846;28;20116;-65
2021/06/23 09:59:04;;;;;;;8.13;4.80;;;28.80;67.50;;;;;;5026462;28;20042;-64
2021/06/23 10:01:36;;;;;;;8.25;4.60;;;28.90;67.90;;;;;;5028631;28;21857;-65
2021/06/23 10:04:08;;;;;;;5.35;4.82;;;28.90;68.50;;;;;;5027614;28;20088;-64
2021/06/23 10:06:36;;;;;;;7.68;4.70;;;28.90;67.70;;;;;;5029091;28;20384;-65
2021/06/23 10:09:22;;;;;;;9.15;5.13;;;28.90;67.80;;;;;;5023856;28;20037;-65
2021/06/23 10:12:02;;;;;;;8.05;4.93;;;28.90;67.80;;;;;;5028042;28;20680;-64
2021/06/23 10:14:30;;;;;;;;;;;28.90;67.90;;;;;;5027708;28;20060;-64
2021/06/23 10:17:00;;;;;;;9.13;4.75;;;28.90;67.90;;;;;;5021752;28;19963;-64
2021/06/23 10:19:26;;;;;;;7.38;5.18;;;28.90;68.20;;;;;;5030098;28;20032;-64
2021/06/23 10:21:55;;;;;;;8.50;4.88;;;29.00;68.40;;;;;;5025100;28;20067;-64
2021/06/23 10:24:21;;;;;;;7.72;5.13;;;29.00;68.50;;;;;;5026472;28;20048;-64
2021/06/23 10:26:51;;;;;;;8.52;5.32;;;29.00;68.40;;;;;;5028846;28;20041;-64
2021/06/23 10:29:46;;;;;;;6.63;4.70;;;29.00;68.20;;;;;;5032829;28;20528;-64
2021/06/23 10:32:12;;;;;;;14.90;5.13;;;29.10;68.00;;;;;;5022387;28;20045;-64
2021/06/23 10:34:38;;;;;;;10.00;5.55;;;29.10;68.20;;;;;;5027687;28;20527;-64
2021/06/23 10:37:04;;;;;;;11.32;5.28;;;29.10;68.30;;;;;;5029130;28;20043;-64
2021/06/23 10:39:37;;;;;;;7.93;5.50;;;29.10;68.20;;;;;;5027957;28;20043;-64
2021/06/23 10:42:08;;;;;;;9.60;5.90;;;29.10;68.40;;;;;;5031205;28;20061;-64
2021/06/23 10:44:40;;;;;;;9.45;5.78;;;29.10;68.70;;;;;;5029284;28;20035;-64
2021/06/23 10:47:08;;;;;;;8.20;5.50;;;29.10;69.20;;;;;;5028354;28;20125;-64
2021/06/23 10:49:41;;;;;;;9.38;5.88;;;29.00;69.80;;;;;;5020220;28;20521;-64
2021/06/23 10:52:22;;;;;;;8.88;5.55;;;29.10;69.80;;;;;;5021239;28;20107;-64
2021/06/23 10:54:50;;;;;;;8.30;5.30;;;29.00;69.40;;;;;;5025271;28;20030;-64
2021/06/23 10:57:36;;;;;;;8.70;5.75;;;29.00;70.20;;;;;;5023564;28;20047;-64
2021/06/23 11:00:31;;;;;;;7.72;5.28;;;28.90;70.40;;;;;;5019002;28;20061;-64
2021/06/23 11:03:03;;;;;;;9.50;5.43;;;28.90;69.90;;;;;;5019667;28;20034;-65
2021/06/23 11:05:38;;;;;;;7.05;5.00;;;28.80;70.10;;;;;;5020165;28;20029;-64
2021/06/23 11:08:23;;;;;;;10.52;5.65;;;28.80;70.20;;;;;;5028483;28;20021;-64
2021/06/23 11:10:49;;;;;;;10.40;5.32;;;28.70;70.20;;;;;;5029141;28;20108;-64
2021/06/23 11:13:23;;;;;;;10.07;5.55;;;28.70;70.50;;;;;;5027399;28;20033;-65
2021/06/23 11:15:50;;;;;;;10.07;5.60;;;28.60;70.90;;;;;;5031270;28;20060;-64
2021/06/23 11:18:37;;;;;;;7.25;5.00;;;28.60;71.30;;;;;;5024949;28;20029;-63
2021/06/23 11:21:07;;;;;;;7.78;5.20;;;28.60;70.70;;;;;;5019994;28;20489;-63
2021/06/23 11:23:41;;;;;;;7.40;4.72;;;28.60;70.40;;;;;;5028682;28;20029;-64
2021/06/23 11:26:23;;;;;;;9.93;4.70;;;28.50;70.00;;;;;;5029045;28;20087;-64
2021/06/23 11:28:53;;;;;;;9.00;5.35;;;28.50;69.80;;;;;;5033167;28;20041;-65
2021/06/23 11:31:21;;;;;;;8.93;4.70;;;28.50;69.90;;;;;;5033063;28;20028;-64
2021/06/23 11:33:57;;;;;;;9.02;5.25;;;28.40;69.80;;;;;;5027713;28;20144;-64
2021/06/23 11:36:24;;;;;;;7.18;5.00;;;28.40;70.00;;;;;;5028929;28;20044;-64
2021/06/23 11:38:53;;;;;;;7.78;4.60;;;28.40;70.20;;;;;;5026279;28;20021;-64
2021/06/23 11:41:19;;;;;;;8.07;4.93;;;28.40;70.40;;;;;;5031073;28;20035;-64
2021/06/23 11:43:48;;;;;;;8.32;4.90;;;28.40;70.70;;;;;;5029740;28;20041;-64
2021/06/23 11:46:15;;;;;;;9.18;5.03;;;28.30;70.70;;;;;;5030987;28;20041;-63
2021/06/23 11:48:41;;;;;;;9.32;5.57;;;28.30;71.00;;;;;;5020584;28;20059;-64
2021/06/23 11:51:08;;;;;;;7.90;5.28;;;28.30;71.20;;;;;;5025440;28;20105;-63
2021/06/23 11:53:34;;;;;;;7.40;5.00;;;28.20;71.20;;;;;;5011137;28;20040;-63
2021/06/23 11:56:01;;;;;;;8.82;4.95;;;28.20;71.80;;;;;;5027449;28;20048;-63
2021/06/23 11:58:27;;;;;;;7.55;5.13;;;28.10;71.10;;;;;;5022193;28;22256;-63
2021/06/23 12:00:53;;;;;;;12.23;5.28;;;28.10;71.10;;;;;;5018141;28;20033;-64
2021/06/23 12:03:19;;;;;;;9.80;5.50;;;28.10;71.10;;;;;;5029307;28;20175;-65
2021/06/23 12:05:48;;;;;;;7.85;4.93;;;28.00;71.20;;;;;;5028782;28;20029;-65
2021/06/23 12:08:15;;;;;;;9.98;5.18;;;28.00;71.00;;;;;;5025512;28;20048;-64
2021/06/23 12:10:42;;;;;;;9.40;5.28;;;28.00;71.00;;;;;;5024869;28;20499;-65
2021/06/23 12:13:09;;;;;;;13.90;5.32;;;27.90;71.00;;;;;;5030254;28;20025;-64
2021/06/23 12:15:35;;;;;;;18.58;5.43;;;27.90;71.30;;;;;;5031913;28;20051;-64
2021/06/23 12:18:05;;;;;;;16.05;5.53;;;27.90;71.70;;;;;;5026706;28;20064;-65
2021/06/23 12:20:32;;;;;;;15.82;5.55;;;27.90;71.80;;;;;;5009839;28;20025;-64
2021/06/23 12:23:01;;;;;;;10.10;4.78;;;27.90;71.60;;;;;;5034774;28;20053;-65
2021/06/23 12:25:29;;;;;;;10.68;5.30;;;27.80;71.50;;;;;;5029267;28;20032;-64
2021/06/23 12:27:55;;;;;;;11.57;5.15;;;27.80;71.50;;;;;;5027527;28;20120;-64
2021/06/23 12:30:28;;;;;;;9.27;5.07;;;27.80;71.30;;;;;;5026628;28;20033;-64
2021/06/23 12:32:57;;;;;;;7.63;4.88;;;27.80;71.00;;;;;;5030802;28;20033;-63
2021/06/23 12:35:25;;;;;;;16.60;5.63;;;27.80;71.70;;;;;;5031631;28;20099;-64
2021/06/23 12:37:52;;;;;;;11.73;5.20;;;27.90;71.90;;;;;;5027044;28;20041;-64
2021/06/23 12:40:18;;;;;;;10.52;5.22;;;27.90;72.50;;;;;;5038823;28;20063;-65
2021/06/23 12:42:44;;;;;;;9.70;5.68;;;27.90;73.00;;;;;;5034363;28;20113;-64
2021/06/23 12:45:11;;;;;;;10.85;5.50;;;27.90;73.00;;;;;;5034747;28;20037;-65
2021/06/23 12:47:37;;;;;;;10.05;5.05;;;28.00;73.30;;;;;;5036312;28;20033;-64
2021/06/23 12:50:05;;;;;;;7.95;5.28;;;28.00;73.30;;;;;;5027298;28;20025;-64
2021/06/23 12:52:34;;;;;;;16.05;5.80;;;28.00;73.20;;;;;;5028498;28;20032;-63
2021/06/23 12:55:00;;;;;;;10.35;5.40;;;28.00;73.00;;;;;;5033840;28;20029;-64
2021/06/23 12:57:26;;;;;;;11.75;4.97;;;28.10;72.70;;;;;;5030204;28;20037;-64
2021/06/23 12:59:52;;;;;;;10.38;5.35;;;28.10;72.10;;;;;;5030384;28;20754;-64
2021/06/23 13:02:18;;;;;;;14.80;5.35;;;28.10;72.10;;;;;;5029881;28;20033;-63
2021/06/23 13:04:45;;;;;;;9.35;5.30;;;28.20;72.50;;;;;;5027898;28;20033;-63
2021/06/23 13:07:11;;;;;;;16.30;5.80;;;28.20;72.70;;;;;;5032356;28;20026;-65
2021/06/23 13:09:37;;;;;;;17.00;6.15;;;28.20;72.80;;;;;;5029701;28;20031;-64
2021/06/23 13:12:03;;;;;;;12.77;5.15;;;28.30;72.80;;;;;;5027074;28;20049;-64